createdAt,value
2022-12-14T00:01:45.093Z,2.67
2022-12-14T00:04:16.439Z,2.58
2022-12-14T00:06:43.712Z,2.67
2022-12-14T00:09:11.273Z,2.75
2022-12-14T00:11:38.915Z,2.80
2022-12-14T00:14:07.007Z,3.02
2022-12-14T00:16:35.287Z,2.99
2022-12-14T00:19:03.200Z,2.70
2022-12-14T00:21:30.426Z,2.82
2022-12-14T00:23:59.404Z,2.60
2022-12-14T00:26:30.123Z,2.69
2022-12-14T00:29:00.386Z,2.83
2022-12-14T00:31:28.200Z,2.79
2022-12-14T00:33:55.652Z,2.90
2022-12-14T00:36:23.404Z,2.91
2022-12-14T00:38:51.876Z,2.87
2022-12-14T00:41:19.391Z,3.05
2022-12-14T00:43:49.300Z,2.95
2022-12-14T00:46:18.175Z,3.08
2022-12-14T00:48:45.773Z,2.90
2022-12-14T00:51:15.071Z,2.90
2022-12-14T00:53:44.278Z,2.83
2022-12-14T00:56:11.834Z,2.94
2022-12-14T00:58:39.134Z,2.84
2022-12-14T01:01:09.771Z,3.07
2022-12-14T01:03:37.115Z,3.34
2022-12-14T01:06:04.521Z,3.23
2022-12-14T01:08:35.948Z,3.28
2022-12-14T01:11:05.763Z,3.24
2022-12-14T01:13:33.776Z,3.27
2022-12-14T01:16:06.783Z,3.09
2022-12-14T01:18:35.856Z,3.25
2022-12-14T01:21:09.535Z,3.47
2022-12-14T01:23:37.586Z,3.21
2022-12-14T01:26:04.864Z,2.79
2022-12-14T01:28:32.249Z,3.09
2022-12-14T01:30:59.542Z,3.23
2022-12-14T01:33:27.008Z,3.41
2022-12-14T01:35:55.496Z,3.27
2022-12-14T01:38:22.934Z,2.83
2022-12-14T01:40:50.216Z,2.68
2022-12-14T01:43:17.469Z,2.82
2022-12-14T01:45:44.672Z,2.96
2022-12-14T01:48:13.440Z,2.83
2022-12-14T01:50:43.692Z,2.69
2022-12-14T01:53:15.916Z,2.79
2022-12-14T01:55:48.808Z,2.93
2022-12-14T01:58:24.006Z,2.51
2022-12-14T02:00:56.334Z,2.40
2022-12-14T02:03:26.643Z,2.43
2022-12-14T02:05:58.200Z,2.22
2022-12-14T02:08:27.292Z,1.98
2022-12-14T02:10:55.770Z,1.89
2022-12-14T02:13:27.268Z,1.88
2022-12-14T02:15:54.919Z,1.79
2022-12-14T02:18:24.554Z,1.82
2022-12-14T02:21:01.485Z,1.89
2022-12-14T02:23:42.909Z,2.09
2022-12-14T02:26:31.163Z,1.96
2022-12-14T02:29:16.890Z,2.24
2022-12-14T02:31:47.038Z,2.21
2022-12-14T02:34:51.711Z,2.13
2022-12-14T02:37:24.936Z,2.34
2022-12-14T02:40:14.471Z,2.43
2022-12-14T02:42:56.632Z,2.21
2022-12-14T02:45:42.481Z,2.40
2022-12-14T02:48:16.758Z,2.46
2022-12-14T02:50:51.772Z,2.14
2022-12-14T02:53:26.699Z,2.38
2022-12-14T02:55:54.942Z,2.18
2022-12-14T02:58:41.445Z,2.05
2022-12-14T03:01:12.728Z,1.95
2022-12-14T03:03:40.974Z,2.00
2022-12-14T03:06:26.225Z,1.88
2022-12-14T03:09:16.858Z,2.18
2022-12-14T03:12:07.612Z,2.18
2022-12-14T03:14:40.013Z,2.11
2022-12-14T03:17:19.276Z,1.98
2022-12-14T03:20:07.142Z,1.82
2022-12-14T03:22:49.535Z,1.91
2022-12-14T03:25:22.442Z,1.85
2022-12-14T03:27:53.704Z,1.93
2022-12-14T03:30:43.841Z,1.94
2022-12-14T03:33:13.790Z,2.27
2022-12-14T03:35:50.693Z,2.25
2022-12-14T03:38:21.426Z,2.20
2022-12-14T03:40:53.504Z,2.17
2022-12-14T03:43:42.926Z,2.24
2022-12-14T03:46:41.832Z,1.98
2022-12-14T03:49:17.303Z,2.07
2022-12-14T03:52:00.384Z,2.35
2022-12-14T03:54:33.793Z,2.32
2022-12-14T03:57:15.049Z,2.13
2022-12-14T03:59:54.246Z,2.26
2022-12-14T04:02:36.311Z,2.61
2022-12-14T04:05:12.541Z,2.58
2022-12-14T04:07:46.109Z,2.39
2022-12-14T04:10:39.248Z,2.27
2022-12-14T04:13:29.065Z,1.99
2022-12-14T04:16:18.782Z,1.93
2022-12-14T04:19:00.314Z,1.93
2022-12-14T04:21:38.237Z,1.94
2022-12-14T04:24:37.703Z,1.97
2022-12-14T04:27:30.147Z,1.81
2022-12-14T04:30:00.421Z,1.99
2022-12-14T04:32:53.004Z,1.85
2022-12-14T04:35:39.963Z,1.81
2022-12-14T04:38:11.431Z,2.11
2022-12-14T04:40:44.209Z,2.15
2022-12-14T04:43:15.512Z,2.12
2022-12-14T04:45:53.973Z,1.82
2022-12-14T04:48:52.240Z,1.77
2022-12-14T04:51:50.960Z,1.79
2022-12-14T04:54:39.960Z,1.68
2022-12-14T04:57:18.977Z,1.39
2022-12-14T04:59:47.655Z,1.30
2022-12-14T05:02:52.682Z,1.50
2022-12-14T05:05:27.400Z,1.46
2022-12-14T05:08:10.349Z,1.64
2022-12-14T05:11:39.457Z,1.88
2022-12-14T05:13:55.218Z,1.85
2022-12-14T05:16:23.462Z,1.86
2022-12-14T05:18:51.117Z,1.46
2022-12-14T05:21:36.889Z,1.43
2022-12-14T05:24:04.444Z,1.55
2022-12-14T05:26:32.040Z,1.43
2022-12-14T05:28:59.355Z,1.51
2022-12-14T05:31:27.023Z,1.66
2022-12-14T05:33:54.304Z,1.75
2022-12-14T05:36:21.931Z,1.71
2022-12-14T05:38:49.241Z,1.84
2022-12-14T05:41:16.443Z,1.87
2022-12-14T05:43:43.732Z,1.90
2022-12-14T05:46:12.104Z,1.50
2022-12-14T05:48:39.643Z,1.37
2022-12-14T05:51:08.842Z,1.42
2022-12-14T05:53:36.615Z,1.38
2022-12-14T05:56:05.760Z,1.39
2022-12-14T05:58:34.787Z,1.17
2022-12-14T06:01:09.149Z,1.36
2022-12-14T06:03:38.900Z,1.46
2022-12-14T06:06:09.445Z,1.65
2022-12-14T06:08:39.518Z,1.70
2022-12-14T06:11:11.970Z,1.51
2022-12-14T06:13:40.037Z,1.51
2022-12-14T06:16:26.592Z,1.75
2022-12-14T06:18:58.826Z,1.78
2022-12-14T06:21:29.140Z,1.75
2022-12-14T06:23:56.975Z,1.81
2022-12-14T06:26:25.276Z,1.82
2022-12-14T06:28:52.943Z,1.85
2022-12-14T06:31:22.603Z,1.73
2022-12-14T06:33:50.453Z,1.69
2022-12-14T06:36:24.054Z,1.83
2022-12-14T06:38:51.929Z,1.91
2022-12-14T06:41:20.308Z,1.80
2022-12-14T06:43:53.278Z,1.53
2022-12-14T06:46:24.706Z,1.66
2022-12-14T06:48:53.522Z,1.99
2022-12-14T06:51:22.716Z,1.63
2022-12-14T06:53:51.911Z,1.70
2022-12-14T06:56:20.398Z,1.75
2022-12-14T06:58:48.232Z,1.53
2022-12-14T07:01:21.221Z,1.53
2022-12-14T07:03:50.956Z,1.60
2022-12-14T07:06:18.194Z,1.94
2022-12-14T07:08:45.937Z,1.82
2022-12-14T07:11:15.260Z,1.76
2022-12-14T07:13:42.771Z,1.75
2022-12-14T07:16:16.390Z,1.94
2022-12-14T07:18:44.035Z,2.00
2022-12-14T07:21:13.733Z,1.98
2022-12-14T07:23:42.527Z,1.94
2022-12-14T07:26:13.272Z,1.92
2022-12-14T07:28:41.185Z,1.80
2022-12-14T07:31:12.339Z,1.70
2022-12-14T07:33:39.687Z,2.00
2022-12-14T07:36:26.220Z,2.40
2022-12-14T07:38:55.652Z,2.31
2022-12-14T07:41:25.746Z,2.21
2022-12-14T07:43:54.565Z,2.75
2022-12-14T07:46:24.213Z,2.56
2022-12-14T07:48:56.810Z,2.27
2022-12-14T07:51:26.542Z,1.91
2022-12-14T07:53:54.720Z,1.77
2022-12-14T07:56:25.099Z,2.25
2022-12-14T07:58:54.183Z,1.87
2022-12-14T08:01:23.702Z,1.85
2022-12-14T08:03:52.280Z,1.72
2022-12-14T08:06:20.916Z,1.59
2022-12-14T08:08:49.288Z,1.54
2022-12-14T08:11:16.867Z,1.28
2022-12-14T08:13:44.325Z,0.96
2022-12-14T08:16:14.105Z,1.40
2022-12-14T08:18:42.421Z,1.29
2022-12-14T08:21:11.011Z,1.57
2022-12-14T08:23:39.051Z,1.76
2022-12-14T08:26:06.538Z,1.62
2022-12-14T08:28:35.411Z,1.77
2022-12-14T08:31:08.479Z,1.31
2022-12-14T08:33:36.954Z,1.35
2022-12-14T08:36:27.869Z,1.79
2022-12-14T08:38:56.791Z,1.83
2022-12-14T08:41:25.141Z,1.63
2022-12-14T08:43:57.220Z,1.79
2022-12-14T08:46:25.998Z,1.97
2022-12-14T08:48:55.073Z,2.06
2022-12-14T08:51:23.574Z,1.96
2022-12-14T08:53:51.664Z,1.78
2022-12-14T08:56:21.455Z,1.63
2022-12-14T08:58:49.218Z,1.82
2022-12-14T09:01:34.049Z,2.00
2022-12-14T09:04:04.935Z,1.95
2022-12-14T09:06:35.015Z,2.07
2022-12-14T09:09:02.191Z,1.92
2022-12-14T09:11:29.336Z,2.02
2022-12-14T09:13:56.848Z,2.22
2022-12-14T09:16:28.612Z,2.40
2022-12-14T09:18:56.075Z,2.30
2022-12-14T09:21:24.059Z,1.93
2022-12-14T09:23:57.278Z,2.10
2022-12-14T09:26:26.597Z,1.98
2022-12-14T09:28:56.360Z,1.84
2022-12-14T09:31:26.216Z,1.78
2022-12-14T09:33:54.850Z,1.85
2022-12-14T09:36:27.690Z,1.85
2022-12-14T09:38:56.677Z,1.77
2022-12-14T09:41:33.005Z,2.03
2022-12-14T09:44:17.920Z,2.11
2022-12-14T09:46:54.896Z,1.98
2022-12-14T09:49:25.692Z,2.21
2022-12-14T09:51:57.395Z,2.73
2022-12-14T09:54:31.005Z,2.51
2022-12-14T09:57:01.761Z,2.47
2022-12-14T09:59:31.868Z,2.24
2022-12-14T10:02:32.364Z,2.19
2022-12-14T10:05:25.058Z,2.16
2022-12-14T10:08:18.377Z,2.28
2022-12-14T10:10:51.564Z,2.57
2022-12-14T10:13:29.394Z,2.72
2022-12-14T10:16:27.200Z,2.59
2022-12-14T10:19:17.326Z,2.96
2022-12-14T10:21:51.658Z,2.87
2022-12-14T10:24:42.897Z,2.24
2022-12-14T10:27:11.376Z,2.15
2022-12-14T10:29:47.955Z,2.35
2022-12-14T10:32:25.753Z,2.57
2022-12-14T10:34:53.289Z,2.94
2022-12-14T10:37:27.713Z,2.90
2022-12-14T10:40:17.581Z,2.82
2022-12-14T10:42:49.790Z,2.62
2022-12-14T10:45:41.450Z,2.48
2022-12-14T10:48:46.595Z,2.65
2022-12-14T10:51:22.195Z,2.48
2022-12-14T10:54:00.299Z,2.24
2022-12-14T10:56:33.532Z,2.53
2022-12-14T10:59:22.098Z,2.56
2022-12-14T11:02:04.117Z,2.65
2022-12-14T11:04:34.682Z,2.51
2022-12-14T11:07:10.291Z,2.47
2022-12-14T11:09:39.161Z,2.46
2022-12-14T11:12:32.797Z,2.54
2022-12-14T11:15:03.103Z,2.41
2022-12-14T11:17:39.797Z,2.38
2022-12-14T11:20:22.407Z,2.40
2022-12-14T11:22:51.450Z,2.64
2022-12-14T11:25:37.653Z,2.60
2022-12-14T11:28:37.804Z,2.80
2022-12-14T11:31:13.742Z,2.76
2022-12-14T11:33:45.734Z,2.48
2022-12-14T11:36:27.009Z,2.54
2022-12-14T11:38:59.476Z,2.76
2022-12-14T11:41:34.011Z,2.96
2022-12-14T11:44:07.060Z,2.96
2022-12-14T11:46:44.913Z,3.02
2022-12-14T11:49:28.722Z,2.94
2022-12-14T11:51:55.911Z,2.45
2022-12-14T11:54:23.300Z,2.23
2022-12-14T11:56:51.233Z,2.21
2022-12-14T11:59:19.344Z,2.40
2022-12-14T12:01:46.922Z,2.75
2022-12-14T12:04:15.752Z,2.85
2022-12-14T12:06:43.193Z,2.63
2022-12-14T12:09:28.057Z,2.85
2022-12-14T12:11:55.354Z,2.84
2022-12-14T12:14:29.874Z,2.84
2022-12-14T12:16:57.827Z,2.91
2022-12-14T12:19:30.637Z,3.21
2022-12-14T12:22:01.077Z,3.29
2022-12-14T12:25:08.371Z,3.37
2022-12-14T12:27:33.070Z,3.00
2022-12-14T12:30:07.468Z,2.71
2022-12-14T12:32:44.043Z,2.93
2022-12-14T12:35:50.111Z,3.43
2022-12-14T12:38:23.223Z,3.17
2022-12-14T12:40:56.323Z,3.19
2022-12-14T12:43:32.218Z,2.86
2022-12-14T12:46:02.795Z,2.65
2022-12-14T12:48:39.801Z,2.96
2022-12-14T12:51:17.182Z,2.97
2022-12-14T12:53:46.086Z,3.03
2022-12-14T12:56:16.940Z,2.96
2022-12-14T12:58:50.623Z,3.06
2022-12-14T13:01:47.922Z,3.30
2022-12-14T13:04:37.461Z,3.37
2022-12-14T13:07:23.007Z,3.63
2022-12-14T13:09:55.178Z,3.53
2022-12-14T13:12:44.019Z,2.84
2022-12-14T13:15:37.699Z,3.20
2022-12-14T13:18:49.363Z,3.30
2022-12-14T13:21:28.477Z,3.27
2022-12-14T13:23:55.996Z,3.47
2022-12-14T13:26:57.872Z,3.98
2022-12-14T13:29:43.636Z,4.22
2022-12-14T13:32:33.835Z,3.49
2022-12-14T13:35:29.239Z,3.61
2022-12-14T13:38:08.638Z,3.63
2022-12-14T13:40:38.964Z,3.88
2022-12-14T13:43:29.667Z,4.18
2022-12-14T13:46:04.703Z,3.96
2022-12-14T13:48:37.334Z,3.64
2022-12-14T13:51:06.577Z,3.76
2022-12-14T13:53:58.838Z,4.04
2022-12-14T13:56:33.596Z,3.89
2022-12-14T13:59:04.111Z,4.26
2022-12-14T14:01:40.620Z,4.14
2022-12-14T14:04:11.043Z,4.24
2022-12-14T14:06:40.802Z,4.26
2022-12-14T14:09:26.474Z,4.32
2022-12-14T14:12:19.551Z,4.13
2022-12-14T14:14:58.021Z,4.01
2022-12-14T14:17:37.354Z,3.89
2022-12-14T14:20:33.799Z,3.87
2022-12-14T14:23:16.731Z,3.74
2022-12-14T14:25:50.177Z,3.61
2022-12-14T14:28:22.998Z,3.56
2022-12-14T14:30:59.859Z,3.23
2022-12-14T14:33:46.062Z,3.26
2022-12-14T14:36:41.123Z,3.43
2022-12-14T14:39:55.447Z,3.67
2022-12-14T14:42:21.892Z,3.66
2022-12-14T14:44:55.018Z,3.62
2022-12-14T14:47:28.619Z,3.26
2022-12-14T14:50:02.322Z,3.48
2022-12-14T14:52:41.744Z,3.67
2022-12-14T14:55:52.066Z,3.61
2022-12-14T14:58:35.840Z,3.36
2022-12-14T15:01:06.445Z,3.40
2022-12-14T15:03:53.463Z,3.64
2022-12-14T15:06:27.757Z,3.66
2022-12-14T15:09:10.998Z,3.76
2022-12-14T15:11:53.315Z,3.51
2022-12-14T15:14:53.370Z,3.12
2022-12-14T15:17:23.461Z,3.22
2022-12-14T15:19:53.465Z,3.23
2022-12-14T15:22:23.809Z,3.24
2022-12-14T15:24:53.682Z,3.27
2022-12-14T15:27:27.598Z,3.40
2022-12-14T15:30:14.471Z,3.58
2022-12-14T15:32:47.613Z,3.34
2022-12-14T15:35:23.457Z,3.66
2022-12-14T15:37:58.008Z,3.30
2022-12-14T15:40:30.229Z,3.19
2022-12-14T15:43:00.002Z,3.11
2022-12-14T15:45:34.842Z,3.39
2022-12-14T15:48:15.247Z,3.69
2022-12-14T15:50:46.189Z,3.64
2022-12-14T15:53:18.049Z,3.73
2022-12-14T15:55:50.018Z,3.66
2022-12-14T15:58:32.570Z,3.87
2022-12-14T16:01:17.779Z,3.74
2022-12-14T16:03:48.546Z,3.90
2022-12-14T16:06:17.404Z,4.02
2022-12-14T16:08:50.385Z,3.76
2022-12-14T16:11:24.959Z,3.86
2022-12-14T16:13:52.527Z,4.00
2022-12-14T16:16:19.926Z,3.44
2022-12-14T16:18:51.297Z,3.44
2022-12-14T16:21:37.113Z,3.44
2022-12-14T16:24:23.408Z,3.41
2022-12-14T16:26:59.121Z,3.47
2022-12-14T16:29:31.594Z,3.60
2022-12-14T16:32:07.128Z,3.90
2022-12-14T16:34:34.463Z,3.69
2022-12-14T16:39:52.529Z,3.70
2022-12-14T16:42:22.632Z,3.43
2022-12-14T16:44:53.796Z,3.82
2022-12-14T16:47:21.491Z,3.83
2022-12-14T16:50:00.336Z,3.74
2022-12-14T16:55:26.369Z,3.24
2022-12-14T16:57:56.104Z,3.35
2022-12-14T17:00:23.336Z,3.17
2022-12-14T17:03:18.679Z,3.56
2022-12-14T17:05:52.327Z,3.43
2022-12-14T17:08:19.722Z,3.42
2022-12-14T17:10:47.178Z,3.55
2022-12-14T17:13:14.485Z,3.32
2022-12-14T17:16:05.842Z,3.12
2022-12-14T17:18:37.739Z,3.43
2022-12-14T17:21:05.792Z,3.36
2022-12-14T17:23:35.375Z,3.44
2022-12-14T17:26:02.685Z,3.56
2022-12-14T17:28:31.481Z,3.82
2022-12-14T17:31:01.653Z,3.97
2022-12-14T17:33:30.187Z,3.68
2022-12-14T17:35:57.793Z,3.48
2022-12-14T17:38:25.109Z,3.18
2022-12-14T17:40:53.827Z,3.39
2022-12-14T17:43:25.102Z,3.26
2022-12-14T17:45:53.117Z,3.26
2022-12-14T17:48:20.970Z,2.93
2022-12-14T17:50:49.933Z,2.94
2022-12-14T17:53:21.720Z,2.66
2022-12-14T17:55:48.913Z,2.81
2022-12-14T17:58:16.886Z,2.57
2022-12-14T18:01:03.453Z,2.41
2022-12-14T18:03:33.163Z,2.62
2022-12-14T18:06:02.267Z,2.73
2022-12-14T18:08:29.626Z,2.58
2022-12-14T18:11:00.008Z,2.92
2022-12-14T18:13:28.678Z,3.07
2022-12-14T18:15:56.479Z,2.91
2022-12-14T18:18:27.523Z,2.66
2022-12-14T18:21:00.470Z,2.67
2022-12-14T18:23:29.845Z,2.75
2022-12-14T18:25:59.117Z,2.49
2022-12-14T18:28:26.594Z,2.49
2022-12-14T18:30:57.297Z,2.69
2022-12-14T18:33:27.644Z,2.81
2022-12-14T18:35:56.499Z,2.49
2022-12-14T18:38:24.637Z,2.67
2022-12-14T18:40:53.837Z,2.80
2022-12-14T18:43:23.951Z,2.73
2022-12-14T18:45:53.102Z,2.87
2022-12-14T18:48:21.466Z,3.02
2022-12-14T18:50:49.526Z,3.06
2022-12-14T18:53:19.834Z,2.73
2022-12-14T18:55:48.093Z,2.65
2022-12-14T18:58:24.121Z,2.50
2022-12-14T19:00:54.610Z,2.64
2022-12-14T19:03:23.096Z,2.72
2022-12-14T19:05:50.541Z,2.86
2022-12-14T19:08:17.984Z,2.90
2022-12-14T19:10:48.058Z,2.85
2022-12-14T19:13:21.644Z,2.79
2022-12-14T19:15:52.329Z,2.73
2022-12-14T19:18:19.636Z,2.84
2022-12-14T19:20:49.519Z,2.74
2022-12-14T19:23:19.344Z,2.86
2022-12-14T19:25:47.195Z,2.39
2022-12-14T19:28:31.462Z,2.52
2022-12-14T19:31:01.172Z,2.82
2022-12-14T19:33:29.850Z,2.88
2022-12-14T19:35:57.664Z,2.92
2022-12-14T19:38:24.966Z,2.73
2022-12-14T19:41:01.094Z,2.92
2022-12-14T19:43:29.838Z,3.00
2022-12-14T19:45:57.513Z,2.91
2022-12-14T19:48:24.759Z,2.93
2022-12-14T19:50:52.168Z,2.94
2022-12-14T19:53:23.771Z,2.64
2022-12-14T19:55:52.592Z,2.72
2022-12-14T19:58:22.037Z,2.97
2022-12-14T20:00:50.594Z,2.91
2022-12-14T20:03:18.348Z,2.69
2022-12-14T20:05:53.605Z,2.41
2022-12-14T20:08:21.482Z,2.47
2022-12-14T20:10:49.264Z,2.64
2022-12-14T20:13:16.501Z,2.74
2022-12-14T20:15:58.357Z,2.55
2022-12-14T20:18:26.460Z,2.86
2022-12-14T20:20:53.833Z,2.67
2022-12-14T20:23:22.041Z,2.62
2022-12-14T20:25:49.334Z,2.53
2022-12-14T20:28:16.691Z,2.54
2022-12-14T20:30:45.279Z,2.67
2022-12-14T20:33:13.108Z,2.67
2022-12-14T20:35:40.349Z,2.75
2022-12-14T20:38:07.879Z,2.63
2022-12-14T20:40:38.808Z,2.65
2022-12-14T20:43:07.276Z,2.45
2022-12-14T20:45:43.945Z,2.56
2022-12-14T20:48:11.387Z,2.59
2022-12-14T20:50:40.364Z,2.74
2022-12-14T20:53:07.939Z,2.32
2022-12-14T20:55:35.637Z,1.85
2022-12-14T20:58:02.901Z,2.03
2022-12-14T21:00:30.453Z,2.13
2022-12-14T21:02:58.070Z,2.48
2022-12-14T21:05:25.586Z,2.47
2022-12-14T21:07:53.018Z,2.51
2022-12-14T21:10:20.288Z,2.38
2022-12-14T21:12:48.640Z,2.51
2022-12-14T21:15:16.114Z,2.54
2022-12-14T21:17:46.327Z,2.86
2022-12-14T21:20:13.682Z,2.94
2022-12-14T21:22:41.023Z,2.75
2022-12-14T21:25:08.505Z,2.62
2022-12-14T21:27:40.770Z,2.66
2022-12-14T21:30:10.175Z,2.53
2022-12-14T21:32:38.422Z,2.17
2022-12-14T21:35:06.294Z,2.44
2022-12-14T21:37:33.701Z,2.44
2022-12-14T21:40:03.649Z,2.38
2022-12-14T21:42:30.835Z,2.46
2022-12-14T21:44:57.981Z,2.66
2022-12-14T21:47:27.261Z,2.51
2022-12-14T21:49:54.923Z,2.20
2022-12-14T21:52:24.992Z,2.45
2022-12-14T21:54:52.233Z,2.36
2022-12-14T21:57:40.643Z,2.53
2022-12-14T22:00:09.770Z,2.51
2022-12-14T22:02:39.898Z,2.35
2022-12-14T22:05:07.639Z,2.17
2022-12-14T22:07:35.070Z,2.34
2022-12-14T22:10:02.505Z,2.63
2022-12-14T22:12:29.804Z,2.67
2022-12-14T22:14:57.190Z,2.41
2022-12-14T22:17:24.425Z,2.25
2022-12-14T22:19:54.234Z,2.43
2022-12-14T22:22:21.534Z,2.30
2022-12-14T22:24:49.888Z,2.26
2022-12-14T22:27:17.734Z,2.41
2022-12-14T22:29:45.037Z,2.32
2022-12-14T22:32:12.950Z,2.27
2022-12-14T22:34:40.763Z,2.37
2022-12-14T22:37:08.444Z,2.28
2022-12-14T22:39:36.007Z,2.26
2022-12-14T22:42:03.353Z,2.38
2022-12-14T22:44:30.824Z,2.32
2022-12-14T22:46:58.314Z,2.18
2022-12-14T22:49:25.652Z,2.05
2022-12-14T22:51:53.071Z,2.01
2022-12-14T22:54:25.448Z,2.00
2022-12-14T22:57:04.921Z,1.92
2022-12-14T22:59:45.502Z,1.95
2022-12-14T23:02:13.086Z,2.02
2022-12-14T23:04:40.595Z,1.96
2022-12-14T23:07:08.020Z,1.96
2022-12-14T23:09:53.873Z,1.89
2022-12-14T23:12:39.783Z,1.93
2022-12-14T23:15:25.622Z,1.95
2022-12-14T23:18:20.099Z,1.70
2022-12-14T23:21:06.094Z,1.80
2022-12-14T23:23:51.851Z,1.65
2022-12-14T23:26:37.642Z,1.79
2022-12-14T23:29:23.576Z,1.92
2022-12-14T23:32:09.438Z,1.82
2022-12-14T23:34:55.240Z,1.91
2022-12-14T23:37:41.378Z,2.00
2022-12-14T23:40:27.765Z,1.70
2022-12-14T23:43:13.587Z,1.77
2022-12-14T23:46:00.228Z,1.92
2022-12-14T23:48:46.706Z,1.97
2022-12-14T23:51:32.588Z,1.88
2022-12-14T23:54:18.315Z,1.61
2022-12-14T23:57:04.207Z,1.58
2022-12-14T23:59:50.214Z,1.73
